Herbster, WI (54844)

10:28 AM CDT on September 01, 2015 (GMT -0500)
State Highway 13 | | Change Station
CLOSE
Current Station
Personal Weather Station
Location: Herbster, WI
Elevation: 670 ft
Nearby Weather Stations

Elev 670 ft 46.83 °N, 91.28 °W | Updated 13 minutes ago

Mostly Cloudy
Mostly Cloudy
75.1 °F
Feels Like 74 °F
N
0.0
Wind Variable Wind from SE
Gusts 0.0 mph

Today
High -- | Low -- °F
--% Chance of Precip.
Yesterday
High -- | Low -- °F
Precip. -- in
6:24 AM 7:44 PM
Waning Gibbous, 88% visible
Pressure 29.91 in
Visibility 6.0 miles
Clouds Clear
Heat Index 74 °F
Dew Point 72 °F
Humidity 90%
Rainfall 0.00 in
Snow Depth Not available.
UV 4 out of 12
Pollen 9.10 out of 12
Air Quality Not available.
Flu Activity Not available.
METAR KASX 011453Z AUTO 21007KT 180V250 6SM BR CLR 24/23 A2991 RMK AO2 RAE25 SLP126 P0002 60005 T02390228 56001
Pressure 29.91 in
Visibility 6.0 miles
Clouds Clear
Heat Index 74 °F
Dew Point 72 °F
Humidity 90%
Rainfall 0.00 in
Snow Depth Not available.
UV 4 out of 12
Pollen 9.10 out of 12
Air Quality Not available.
Flu Activity Not available.
METAR KASX 011453Z AUTO 21007KT 180V250 6SM BR CLR 24/23 A2991 RMK AO2 RAE25 SLP126 P0002 60005 T02390228 56001

10-Day Weather Forecast

×

Almanac

Astronomy

Sep. 01, 2015 Rise Set
Actual Time
Civil Twilight
Nautical Twilight
Astronomical Twilight
Moon
Length of Visible Light
Length of Day
Tomorrow will be .
, % of the Moon is Illuminated

Today's Extremes

State Highs State Lows

Community

WunderPhotos

Upload Photos

1,851,523 photos uploaded!

WunderBlogs® & News

Nearby

Air Quality

  Air Quality AQ Index Pollutant
Not available.

Snow Depth

Station Depth Elevation

Earthquake Activity

City Distance Mag. Time & Date
Minimum magnitude displayed is 2.5.

Coastal Water Temperatures

Place Temperature

Stations

Nearby Weather Stations

Station Location Temp. Windchill Dew Point Humidity Wind Precip. Elev Updated Type